Time;durP1;ratioP1;P1;durP2;ratioP2;P2;SDS_P1;SDS_P2;PMS_P1;PMS_P2;Temp;Humidity;BMP_temperature;BMP_pressure;BME280_temperature;BME280_humidity;BME280_pressure;Samples;Min_cycle;Max_cycle;Signal;HPM_P1;HPM_P2
2021/01/07 00:00:12;;;;;;;12.67;5.60;;;2.40;90.90;;;;;;5055800;28;20020;-74
2021/01/07 00:02:38;;;;;;;11.77;5.37;;;2.40;90.90;;;;;;5039283;28;20036;-74
2021/01/07 00:05:06;;;;;;;11.80;5.07;;;2.40;91.00;;;;;;5055538;28;20066;-74
2021/01/07 00:07:32;;;;;;;10.73;4.33;;;2.40;91.00;;;;;;5072014;28;20027;-75
2021/01/07 00:09:58;;;;;;;11.87;4.73;;;2.30;91.00;;;;;;5072149;28;20107;-75
2021/01/07 00:12:24;;;;;;;13.07;5.20;;;2.30;90.90;;;;;;5073154;28;20162;-75
2021/01/07 00:14:49;;;;;;;10.43;4.73;;;2.30;90.90;;;;;;5055512;28;20494;-74
2021/01/07 00:17:15;;;;;;;10.23;4.77;;;2.30;90.90;;;;;;5071640;28;20032;-74
2021/01/07 00:19:40;;;;;;;11.60;5.07;;;2.30;90.90;;;;;;5072079;28;20035;-75
2021/01/07 00:22:06;;;;;;;10.90;4.93;;;2.30;90.90;;;;;;5038825;28;20029;-75
2021/01/07 00:24:32;;;;;;;12.57;5.30;;;2.30;91.00;;;;;;5073422;28;20032;-74
2021/01/07 00:26:57;;;;;;;14.33;4.90;;;2.20;91.00;;;;;;5072140;28;20021;-74
2021/01/07 00:29:23;;;;;;;11.00;5.17;;;2.20;91.00;;;;;;5072117;28;20024;-74
2021/01/07 00:31:48;;;;;;;12.00;4.83;;;2.20;91.00;;;;;;5071863;28;20046;-74
2021/01/07 00:34:14;;;;;;;15.10;5.50;;;2.20;91.00;;;;;;5055054;28;20052;-74
2021/01/07 00:36:40;;;;;;;12.77;5.03;;;2.20;91.20;;;;;;5073176;28;20023;-74
2021/01/07 00:39:05;;;;;;;9.73;4.27;;;2.10;91.10;;;;;;5071915;28;20103;-74
2021/01/07 00:41:31;;;;;;;9.20;4.73;;;2.10;91.20;;;;;;5073429;28;20073;-74
2021/01/07 00:43:57;;;;;;;10.60;5.33;;;2.10;91.40;;;;;;5073127;28;20360;-74
2021/01/07 00:46:22;;;;;;;14.20;5.40;;;2.00;91.40;;;;;;5055137;28;20055;-74
2021/01/07 00:48:48;;;;;;;10.80;4.50;;;2.00;91.50;;;;;;5071715;28;20103;-75
2021/01/07 00:51:15;;;;;;;9.80;4.93;;;2.00;91.40;;;;;;5071780;28;20431;-74
2021/01/07 00:53:40;;;;;;;10.37;5.37;;;2.00;91.40;;;;;;5071998;28;20032;-74
2021/01/07 00:56:06;;;;;;;10.97;4.97;;;2.00;91.50;;;;;;5071837;28;20499;-74
2021/01/07 00:58:31;;;;;;;13.37;5.60;;;2.00;91.70;;;;;;5071890;28;20399;-74
2021/01/07 01:00:57;;;;;;;14.63;5.10;;;2.00;91.70;;;;;;5038350;28;20021;-74
2021/01/07 01:03:23;;;;;;;12.90;4.87;;;2.00;91.80;;;;;;5071594;28;20484;-74
2021/01/07 01:05:49;;;;;;;11.77;4.97;;;2.00;91.80;;;;;;5038643;28;20120;-74
2021/01/07 01:08:16;;;;;;;9.80;3.93;;;2.00;91.80;;;;;;5072986;28;20055;-74
2021/01/07 01:10:43;;;;;;;11.20;5.00;;;2.10;91.80;;;;;;5055431;28;20119;-75
2021/01/07 01:13:08;;;;;;;11.83;4.47;;;2.00;91.90;;;;;;5072981;28;20521;-74
2021/01/07 01:15:34;;;;;;;8.97;4.10;;;2.00;91.90;;;;;;5072966;28;20024;-74
2021/01/07 01:18:00;;;;;;;12.50;5.17;;;2.10;92.00;;;;;;5073096;28;20032;-75
2021/01/07 01:20:25;;;;;;;11.70;4.60;;;2.20;92.00;;;;;;5056599;28;20384;-74
2021/01/07 01:22:51;;;;;;;12.10;5.10;;;2.10;92.30;;;;;;5041963;28;20365;-74
2021/01/07 01:25:17;;;;;;;11.37;4.77;;;2.10;92.00;;;;;;5058857;28;20464;-75
2021/01/07 01:27:44;;;;;;;10.27;4.73;;;2.20;92.00;;;;;;5075473;28;20033;-74
2021/01/07 01:30:12;;;;;;;9.87;4.13;;;2.20;92.00;;;;;;5058447;28;20024;-75
2021/01/07 01:32:38;;;;;;;10.10;4.63;;;2.20;92.00;;;;;;5076108;28;20021;-75
2021/01/07 01:35:05;;;;;;;10.43;4.97;;;2.20;92.00;;;;;;5076354;28;20467;-75
2021/01/07 01:37:31;;;;;;;12.70;5.67;;;2.20;92.00;;;;;;5075027;28;20087;-75
2021/01/07 01:39:57;;;;;;;9.90;4.40;;;2.30;92.10;;;;;;5041806;28;20035;-75
2021/01/07 01:42:26;;;;;;;14.20;5.80;;;2.30;92.10;;;;;;5074854;28;20032;-75
2021/01/07 01:44:53;;;;;;;10.87;5.47;;;2.30;92.10;;;;;;5074722;28;20107;-75
2021/01/07 01:47:19;;;;;;;11.57;5.07;;;2.30;92.30;;;;;;5058131;28;20480;-75
2021/01/07 01:49:52;;;;;;;15.03;6.03;;;2.30;92.00;;;;;;5074749;28;20060;-75
2021/01/07 01:52:23;;;;;;;12.83;5.50;;;2.30;92.00;;;;;;5074581;28;20078;-74
2021/01/07 01:54:48;;;;;;;14.53;5.87;;;2.30;92.00;;;;;;5074618;28;20099;-75
2021/01/07 01:57:15;;;;;;;16.97;7.20;;;2.30;92.00;;;;;;5075255;28;20499;-75
2021/01/07 01:59:41;;;;;;;15.83;6.60;;;2.40;92.10;;;;;;5057858;28;20034;-75
2021/01/07 02:02:12;;;;;;;16.17;6.80;;;2.40;92.10;;;;;;5057991;28;20032;-75
2021/01/07 02:04:39;;;;;;;13.63;6.67;;;2.40;92.10;;;;;;5075702;28;20029;-74
2021/01/07 02:07:08;;;;;;;14.83;6.90;;;2.40;92.20;;;;;;5075694;28;20056;-75
2021/01/07 02:09:35;;;;;;;14.80;6.90;;;2.40;92.10;;;;;;5074297;28;20017;-75
2021/01/07 02:12:00;;;;;;;13.07;6.40;;;2.40;92.20;;;;;;5057744;28;20025;-74
2021/01/07 02:14:26;;;;;;;15.70;7.57;;;2.40;92.20;;;;;;5074411;28;20354;-75
2021/01/07 02:16:54;;;;;;;13.37;6.70;;;2.40;92.20;;;;;;5057554;28;20050;-74
2021/01/07 02:19:21;;;;;;;17.53;7.37;;;2.50;92.20;;;;;;5074686;28;20033;-74
2021/01/07 02:21:47;;;;;;;11.83;6.63;;;2.50;92.20;;;;;;5075864;28;20035;-75
2021/01/07 02:24:13;;;;;;;15.23;7.27;;;2.50;92.20;;;;;;5075370;28;20032;-75
2021/01/07 02:26:40;;;;;;;15.37;7.13;;;2.50;92.20;;;;;;5074720;28;20017;-75
2021/01/07 02:29:06;;;;;;;14.70;7.43;;;2.50;92.20;;;;;;5041415;28;20057;-74
2021/01/07 02:31:32;;;;;;;17.17;7.20;;;2.50;92.20;;;;;;5073324;28;20029;-75
2021/01/07 02:33:57;;;;;;;15.03;6.57;;;2.60;92.30;;;;;;5073684;28;20028;-75
2021/01/07 02:36:23;;;;;;;15.90;7.90;;;2.50;92.20;;;;;;5074061;28;20416;-75
2021/01/07 02:38:49;;;;;;;15.43;7.30;;;2.50;92.20;;;;;;5074024;28;20025;-75
2021/01/07 02:41:15;;;;;;;16.33;8.50;;;2.60;92.30;;;;;;5075097;28;20025;-74
2021/01/07 02:43:40;;;;;;;15.57;7.67;;;2.50;92.20;;;;;;5057182;28;20515;-75
2021/01/07 02:46:06;;;;;;;16.23;7.77;;;2.50;92.30;;;;;;5073964;28;20028;-75
2021/01/07 02:48:32;;;;;;;18.00;7.80;;;2.60;92.30;;;;;;5073800;28;20020;-75
2021/01/07 02:50:58;;;;;;;18.43;7.90;;;2.60;92.30;;;;;;5056948;28;20049;-74
2021/01/07 02:53:23;;;;;;;16.03;8.10;;;2.60;92.30;;;;;;5056794;28;20025;-75
2021/01/07 02:55:50;;;;;;;16.23;8.80;;;2.60;92.30;;;;;;5074396;28;20068;-75
2021/01/07 02:58:15;;;;;;;16.90;9.53;;;2.60;92.30;;;;;;5074660;28;20052;-75
2021/01/07 03:00:41;;;;;;;17.80;8.60;;;2.60;92.30;;;;;;5056883;28;20532;-75
2021/01/07 03:03:06;;;;;;;17.97;8.73;;;2.60;92.30;;;;;;5073732;28;20043;-75
2021/01/07 03:05:33;;;;;;;15.10;8.80;;;2.60;92.30;;;;;;5057010;28;20041;-75
2021/01/07 03:07:59;;;;;;;19.07;9.07;;;2.60;92.30;;;;;;5056494;28;20039;-75
2021/01/07 03:10:24;;;;;;;17.10;8.97;;;2.60;92.20;;;;;;5074362;28;20032;-75
2021/01/07 03:12:50;;;;;;;16.63;9.37;;;2.60;92.30;;;;;;5056487;28;20094;-75
2021/01/07 03:15:16;;;;;;;18.00;9.00;;;2.60;92.30;;;;;;5056462;28;20032;-75
2021/01/07 03:17:41;;;;;;;16.20;9.63;;;2.60;92.30;;;;;;5056404;28;20032;-75
2021/01/07 03:20:12;;;;;;;15.23;9.13;;;2.60;92.20;;;;;;5039783;28;20020;-75
2021/01/07 03:22:39;;;;;;;17.03;8.87;;;2.70;92.30;;;;;;5073044;28;20477;-75
2021/01/07 03:25:05;;;;;;;17.43;8.80;;;2.60;92.30;;;;;;5056667;28;20173;-75
2021/01/07 03:27:31;;;;;;;15.87;9.37;;;2.60;92.30;;;;;;5072844;28;20043;-75
2021/01/07 03:29:57;;;;;;;16.10;8.73;;;2.70;92.30;;;;;;5056557;28;20029;-74
2021/01/07 03:32:24;;;;;;;16.73;9.10;;;2.70;92.30;;;;;;5039681;28;20025;-75
2021/01/07 03:34:51;;;;;;;16.80;8.87;;;2.70;92.30;;;;;;5056516;28;20130;-75
2021/01/07 03:37:16;;;;;;;14.53;8.50;;;2.70;92.30;;;;;;5056353;28;20066;-75
2021/01/07 03:39:42;;;;;;;15.50;8.77;;;2.70;92.30;;;;;;5073805;28;20104;-76
2021/01/07 03:42:08;;;;;;;18.33;9.00;;;2.70;92.30;;;;;;5039233;28;20166;-75
2021/01/07 03:44:33;;;;;;;15.93;8.57;;;2.70;92.20;;;;;;5073825;28;20481;-75
2021/01/07 03:46:59;;;;;;;16.60;9.40;;;2.70;92.20;;;;;;5039301;28;20481;-75
2021/01/07 03:49:26;;;;;;;18.27;9.33;;;2.70;92.20;;;;;;5072513;28;20051;-75
2021/01/07 03:51:51;;;;;;;17.13;8.83;;;2.70;92.20;;;;;;5056296;28;20039;-75
2021/01/07 03:54:17;;;;;;;18.63;9.13;;;2.70;92.20;;;;;;5039078;28;20032;-75
2021/01/07 03:56:43;;;;;;;14.23;7.97;;;2.70;92.20;;;;;;5072556;28;20107;-75
2021/01/07 03:59:08;;;;;;;15.60;7.93;;;2.70;92.20;;;;;;5039312;28;20024;-74
2021/01/07 04:01:34;;;;;;;15.40;6.97;;;2.70;92.20;;;;;;5073491;28;20384;-76
2021/01/07 04:03:59;;;;;;;15.03;8.30;;;2.70;92.20;;;;;;5073532;28;20486;-75
2021/01/07 04:06:25;;;;;;;13.40;7.03;;;2.70;92.20;;;;;;5055505;28;20036;-76
2021/01/07 04:08:50;;;;;;;14.83;8.00;;;2.70;92.20;;;;;;5072353;28;20127;-75
2021/01/07 04:11:16;;;;;;;15.53;8.57;;;2.60;92.20;;;;;;5038964;28;20384;-76
2021/01/07 04:13:42;;;;;;;19.07;9.00;;;2.70;92.20;;;;;;5055757;28;20028;-75
2021/01/07 04:16:08;;;;;;;15.30;8.27;;;2.60;92.20;;;;;;5038993;28;20127;-75
2021/01/07 04:18:33;;;;;;;15.27;8.50;;;2.60;92.20;;;;;;5038871;28;20036;-75
2021/01/07 04:21:00;;;;;;;16.40;8.93;;;2.50;92.20;;;;;;5039291;28;20024;-75
2021/01/07 04:23:26;;;;;;;21.60;11.13;;;2.50;92.20;;;;;;5055660;28;20234;-75
2021/01/07 04:25:51;;;;;;;17.53;9.97;;;2.50;92.30;;;;;;5072375;28;20055;-75
2021/01/07 04:28:17;;;;;;;17.00;8.50;;;2.50;92.30;;;;;;5038822;28;20028;-75
2021/01/07 04:30:42;;;;;;;17.00;9.97;;;2.40;92.50;;;;;;5072084;28;20395;-74
2021/01/07 04:33:08;;;;;;;18.30;9.57;;;2.40;92.30;;;;;;5055260;28;20123;-75
2021/01/07 04:35:34;;;;;;;20.40;10.60;;;2.40;92.60;;;;;;5038811;28;20468;-75
2021/01/07 04:37:59;;;;;;;18.37;9.93;;;2.40;92.30;;;;;;5055258;28;20029;-75
2021/01/07 04:40:25;;;;;;;17.83;9.00;;;2.40;92.40;;;;;;5071909;28;20025;-75
2021/01/07 04:42:51;;;;;;;19.83;10.27;;;2.40;92.40;;;;;;5038690;28;20040;-75
2021/01/07 04:45:16;;;;;;;18.33;10.57;;;2.40;92.40;;;;;;5055183;28;20132;-75
2021/01/07 04:47:42;;;;;;;16.80;9.97;;;2.40;92.40;;;;;;5071894;28;20044;-75
2021/01/07 04:50:09;;;;;;;17.07;8.63;;;2.40;92.40;;;;;;5071847;28;20052;-76
2021/01/07 04:52:35;;;;;;;21.70;11.20;;;2.50;92.50;;;;;;5055081;28;20391;-75
2021/01/07 04:55:01;;;;;;;18.10;10.00;;;2.40;92.50;;;;;;5073021;28;20037;-75
2021/01/07 04:57:26;;;;;;;20.97;10.27;;;2.40;92.50;;;;;;5059259;28;20468;-76
2021/01/07 04:59:52;;;;;;;17.40;9.67;;;2.50;92.50;;;;;;5042474;28;20115;-75
2021/01/07 05:02:18;;;;;;;19.13;10.57;;;2.50;92.50;;;;;;5059222;28;20032;-75
2021/01/07 05:04:49;;;;;;;18.60;9.83;;;2.50;92.50;;;;;;5079230;28;20040;-75
2021/01/07 05:07:17;;;;;;;17.93;10.10;;;2.50;92.60;;;;;;5097118;28;20039;-75
2021/01/07 05:09:43;;;;;;;18.37;10.03;;;2.60;92.60;;;;;;5095829;28;20361;-75
2021/01/07 05:12:09;;;;;;;16.57;9.20;;;2.60;92.60;;;;;;5095602;28;20032;-75
2021/01/07 05:14:46;;;;;;;17.87;9.20;;;2.60;92.60;;;;;;5096734;28;20028;-75
2021/01/07 05:17:15;;;;;;;14.57;8.60;;;2.60;92.60;;;;;;5097086;28;20024;-75
2021/01/07 05:19:41;;;;;;;14.87;8.47;;;2.60;92.70;;;;;;5058344;28;20396;-75
2021/01/07 05:22:07;;;;;;;13.67;7.13;;;2.60;92.60;;;;;;5085568;28;20025;-75
2021/01/07 05:24:33;;;;;;;13.23;7.33;;;2.70;92.70;;;;;;5070644;28;20055;-75
2021/01/07 05:27:17;;;;;;;13.63;7.10;;;2.70;92.70;;;;;;5094610;28;20020;-75
2021/01/07 05:29:43;;;;;;;17.30;6.93;;;2.70;92.70;;;;;;5095183;28;20024;-75
2021/01/07 05:32:10;;;;;;;16.63;8.97;;;2.70;92.70;;;;;;5095022;28;20076;-74
2021/01/07 05:34:49;;;;;;;11.50;6.50;;;2.70;92.70;;;;;;5094166;28;20020;-75
2021/01/07 05:37:19;;;;;;;13.87;7.60;;;2.70;92.60;;;;;;5095382;28;20016;-76
2021/01/07 05:39:51;;;;;;;13.40;7.27;;;2.70;92.60;;;;;;5095254;28;20134;-75
2021/01/07 05:42:17;;;;;;;15.33;8.00;;;2.70;92.70;;;;;;5078843;28;20078;-75
2021/01/07 05:44:47;;;;;;;14.70;7.97;;;2.70;92.70;;;;;;5095738;28;20107;-75
2021/01/07 05:47:27;;;;;;;12.53;7.13;;;2.70;92.80;;;;;;5095109;28;20032;-75
2021/01/07 05:49:54;;;;;;;13.40;7.20;;;2.70;92.70;;;;;;5096197;28;20044;-75
2021/01/07 05:52:21;;;;;;;13.57;7.40;;;2.70;92.80;;;;;;5095325;28;20032;-75
2021/01/07 05:54:48;;;;;;;15.43;7.30;;;2.70;92.70;;;;;;5095008;28;20158;-75
2021/01/07 05:57:14;;;;;;;14.67;7.50;;;2.70;92.70;;;;;;5095249;28;20025;-75
2021/01/07 05:59:41;;;;;;;12.47;7.20;;;2.70;92.80;;;;;;5078033;28;20027;-75
2021/01/07 06:02:10;;;;;;;14.67;7.20;;;2.70;92.80;;;;;;5095017;28;20024;-75
2021/01/07 06:04:39;;;;;;;14.57;7.00;;;2.70;92.80;;;;;;5094697;28;20475;-75
2021/01/07 06:07:05;;;;;;;12.00;6.63;;;2.70;92.90;;;;;;5093818;28;20097;-75
2021/01/07 06:09:31;;;;;;;13.00;6.57;;;2.70;92.80;;;;;;5078134;28;20028;-75
2021/01/07 06:11:59;;;;;;;14.73;6.40;;;2.70;92.90;;;;;;5095684;28;20422;-76
2021/01/07 06:14:25;;;;;;;11.67;6.77;;;2.70;92.90;;;;;;5095726;28;20027;-75
2021/01/07 06:16:56;;;;;;;15.77;7.17;;;2.70;92.90;;;;;;5096057;28;20024;-76
2021/01/07 06:19:40;;;;;;;14.97;6.23;;;2.70;92.90;;;;;;5093765;28;20149;-75
2021/01/07 06:22:16;;;;;;;13.27;6.87;;;2.70;92.90;;;;;;5076679;28;20069;-74
2021/01/07 06:24:43;;;;;;;13.90;7.17;;;2.70;93.00;;;;;;5084630;28;20274;-74
2021/01/07 06:27:28;;;;;;;15.90;7.70;;;2.70;93.00;;;;;;5096096;28;20031;-73
2021/01/07 06:30:20;;;;;;;13.83;7.27;;;2.70;93.00;;;;;;5094292;28;20016;-73
2021/01/07 06:32:59;;;;;;;15.50;8.10;;;2.70;93.10;;;;;;5092265;28;20028;-73
2021/01/07 06:35:33;;;;;;;20.33;8.13;;;2.70;93.10;;;;;;5087145;28;20024;-74
2021/01/07 06:37:59;;;;;;;12.35;7.00;;;2.70;93.10;;;;;;5074789;28;20488;-74
2021/01/07 06:40:25;;;;;;;15.70;8.13;;;2.70;93.10;;;;;;5084213;28;20066;-74
2021/01/07 06:42:53;;;;;;;16.53;7.93;;;2.70;93.10;;;;;;5077784;28;20494;-73
2021/01/07 06:45:23;;;;;;;13.20;7.13;;;2.70;93.10;;;;;;5095230;28;20047;-74
2021/01/07 06:47:53;;;;;;;16.23;7.87;;;2.80;93.10;;;;;;5094369;28;20060;-74
2021/01/07 06:50:19;;;;;;;14.60;7.10;;;2.80;93.10;;;;;;5093939;28;20135;-74
2021/01/07 06:52:46;;;;;;;14.80;8.20;;;2.80;93.10;;;;;;5092760;28;20085;-73
2021/01/07 06:55:16;;;;;;;14.93;7.57;;;2.80;93.10;;;;;;5076704;28;20062;-74
2021/01/07 06:57:44;;;;;;;14.67;7.00;;;2.80;93.20;;;;;;5065922;28;20492;-74
2021/01/07 07:00:12;;;;;;;12.40;6.60;;;2.80;93.40;;;;;;5082428;28;20107;-73
2021/01/07 07:02:38;;;;;;;13.13;6.63;;;2.80;93.10;;;;;;5090757;28;20028;-73
2021/01/07 07:05:09;;;;;;;14.50;7.13;;;2.80;93.10;;;;;;5089599;28;20120;-74
2021/01/07 07:08:02;;;;;;;15.70;8.00;;;2.80;93.10;;;;;;5076532;28;20032;-74
2021/01/07 07:10:47;;;;;;;14.60;6.37;;;2.80;93.10;;;;;;5086479;28;20118;-74
2021/01/07 07:13:18;;;;;;;13.40;6.30;;;2.90;93.20;;;;;;5083305;28;20035;-72
2021/01/07 07:15:45;;;;;;;14.73;6.47;;;2.90;93.10;;;;;;5086338;28;20024;-72
2021/01/07 07:18:11;;;;;;;12.87;5.77;;;2.90;93.10;;;;;;5092878;28;20046;-72
2021/01/07 07:20:45;;;;;;;13.50;6.00;;;2.90;93.10;;;;;;5093366;28;20036;-71
2021/01/07 07:23:23;;;;;;;8.82;4.22;;;2.90;93.10;;;;;;5076994;28;20024;-73
2021/01/07 07:25:51;;;;;;;10.93;5.10;;;2.90;93.10;;;;;;5094464;28;20077;-72
2021/01/07 07:28:24;;;;;;;14.20;5.37;;;2.90;93.00;;;;;;5093051;28;20065;-72
2021/01/07 07:30:50;;;;;;;11.77;5.43;;;2.90;93.00;;;;;;5092999;28;20039;-72
2021/01/07 07:33:45;;;;;;;13.03;5.57;;;3.00;93.00;;;;;;5092726;28;20452;-73
2021/01/07 07:36:11;;;;;;;14.00;7.07;;;3.00;93.00;;;;;;5059867;28;20068;-73
2021/01/07 07:38:41;;;;;;;16.27;5.87;;;3.00;93.00;;;;;;5086215;28;20056;-74
2021/01/07 07:41:09;;;;;;;14.77;6.43;;;3.00;93.00;;;;;;5093848;28;20024;-73
2021/01/07 07:43:35;;;;;;;13.97;7.27;;;3.00;93.00;;;;;;5092400;28;20313;-73
2021/01/07 07:46:03;;;;;;;14.57;6.63;;;2.90;93.00;;;;;;5092941;28;20123;-73
2021/01/07 07:48:30;;;;;;;14.83;5.70;;;3.00;93.00;;;;;;5092754;28;20020;-74
2021/01/07 07:51:11;;;;;;;14.87;6.43;;;3.00;93.00;;;;;;5059059;28;20638;-74
2021/01/07 07:53:38;;;;;;;13.67;6.53;;;3.00;93.00;;;;;;5093993;28;20064;-73
2021/01/07 07:56:04;;;;;;;14.30;7.13;;;3.00;93.00;;;;;;5076314;28;20028;-74
2021/01/07 07:58:30;;;;;;;13.87;7.03;;;3.00;93.10;;;;;;5092896;28;20047;-74
2021/01/07 08:00:59;;;;;;;15.87;8.57;;;3.00;93.10;;;;;;5092729;28;20028;-74
2021/01/07 08:03:26;;;;;;;13.40;6.73;;;3.00;93.10;;;;;;5076049;28;20028;-73
2021/01/07 08:05:52;;;;;;;13.90;6.93;;;3.00;93.10;;;;;;5075709;28;20032;-80
2021/01/07 08:08:34;;;;;;;14.53;7.90;;;3.00;93.20;;;;;;5094098;28;20031;-80
2021/01/07 08:11:01;;;;;;;13.33;7.10;;;3.10;93.20;;;;;;5092556;28;20020;-81
2021/01/07 08:13:28;;;;;;;14.77;6.97;;;3.00;93.20;;;;;;5078559;28;20364;-81
2021/01/07 08:15:59;;;;;;;16.57;8.03;;;3.10;93.20;;;;;;5085098;28;20021;-81
2021/01/07 08:18:26;;;;;;;14.53;8.00;;;3.10;93.20;;;;;;5075639;28;20024;-81
2021/01/07 08:20:53;;;;;;;14.63;7.70;;;3.10;93.20;;;;;;5075654;28;20023;-80
2021/01/07 08:23:20;;;;;;;16.17;8.50;;;3.10;93.20;;;;;;5092371;28;20043;-80
2021/01/07 08:25:52;;;;;;;17.70;8.80;;;3.10;93.20;;;;;;5092027;28;20087;-81
2021/01/07 08:28:26;;;;;;;16.83;8.57;;;3.20;93.20;;;;;;5086672;28;20074;-80
2021/01/07 08:31:05;;;;;;;16.37;8.87;;;3.20;93.20;;;;;;5080104;28;20031;-80
2021/01/07 08:33:31;;;;;;;15.23;8.93;;;3.20;93.20;;;;;;5081552;28;20021;-80
2021/01/07 08:36:12;;;;;;;14.93;7.93;;;3.20;93.20;;;;;;5055541;28;20115;-81
2021/01/07 08:38:38;;;;;;;16.63;8.80;;;3.30;93.20;;;;;;5073286;28;20031;-81
2021/01/07 08:41:23;;;;;;;19.77;10.13;;;3.20;93.20;;;;;;5073302;28;20059;-80
2021/01/07 08:43:51;;;;;;;19.03;9.67;;;3.30;93.20;;;;;;5091203;28;20024;-80
2021/01/07 08:46:21;;;;;;;17.90;9.43;;;3.30;93.10;;;;;;5086282;28;21544;-80
2021/01/07 08:49:06;;;;;;;18.50;9.20;;;3.40;93.10;;;;;;5072930;28;20488;-81
2021/01/07 08:51:44;;;;;;;16.33;9.17;;;3.30;93.10;;;;;;5089797;28;20044;-80
2021/01/07 08:54:14;;;;;;;15.63;8.33;;;3.30;93.10;;;;;;5091597;28;20066;-81
2021/01/07 08:56:44;;;;;;;16.60;9.13;;;3.30;93.10;;;;;;5093397;28;20056;-81
2021/01/07 08:59:32;;;;;;;15.60;8.70;;;3.30;93.10;;;;;;5080971;28;20090;-80
2021/01/07 09:02:07;;;;;;;15.33;8.03;;;3.30;93.10;;;;;;5090211;28;20379;-80
2021/01/07 09:04:40;;;;;;;12.33;6.90;;;3.30;93.10;;;;;;5085027;28;20164;-81
2021/01/07 09:07:13;;;;;;;14.02;7.85;;;3.30;93.30;;;;;;5091859;28;20052;-80
2021/01/07 09:09:50;;;;;;;13.83;7.47;;;3.30;93.10;;;;;;5091649;28;20024;-80
2021/01/07 09:12:28;;;;;;;13.40;6.87;;;3.30;93.10;;;;;;5093109;28;20024;-80
2021/01/07 09:15:05;;;;;;;12.30;6.97;;;3.40;93.10;;;;;;5088857;28;20375;-80
2021/01/07 09:17:49;;;;;;;13.13;8.07;;;3.40;93.10;;;;;;5089064;28;20017;-80
2021/01/07 09:20:16;;;;;;;14.52;6.82;;;3.40;93.10;;;;;;5091790;28;20391;-79
2021/01/07 09:22:43;;;;;;;12.73;7.07;;;3.40;93.00;;;;;;5076514;28;20052;-80
2021/01/07 09:25:17;;;;;;;13.97;6.37;;;3.40;92.90;;;;;;5077151;28;20408;-80
2021/01/07 09:27:44;;;;;;;9.53;5.37;;;3.40;92.90;;;;;;5091905;28;20020;-79
2021/01/07 09:30:11;;;;;;;12.60;6.57;;;3.40;92.90;;;;;;5091739;28;20124;-79
2021/01/07 09:32:36;;;;;;;12.73;6.27;;;3.40;92.90;;;;;;5091574;28;20436;-80
2021/01/07 09:35:03;;;;;;;9.80;5.40;;;3.40;92.90;;;;;;5074821;28;20107;-79
2021/01/07 09:37:29;;;;;;;14.43;6.33;;;3.40;92.80;;;;;;5082132;28;20480;-80
2021/01/07 09:39:55;;;;;;;10.07;5.37;;;3.40;92.80;;;;;;5075547;28;20024;-79
2021/01/07 09:42:21;;;;;;;9.80;5.43;;;3.40;92.80;;;;;;5085198;28;20066;-80
2021/01/07 09:44:51;;;;;;;10.50;5.67;;;3.40;92.80;;;;;;5088902;28;20388;-80
2021/01/07 09:47:17;;;;;;;12.20;6.10;;;3.40;92.80;;;;;;5088771;28;20028;-80
2021/01/07 09:49:43;;;;;;;10.80;6.20;;;3.50;92.80;;;;;;5095380;28;20056;-79
2021/01/07 09:52:09;;;;;;;10.23;5.13;;;3.50;92.80;;;;;;5095246;28;20024;-80
2021/01/07 09:54:34;;;;;;;10.20;5.80;;;3.50;92.80;;;;;;5094867;28;20051;-80
2021/01/07 09:57:01;;;;;;;10.83;6.00;;;3.50;92.80;;;;;;5078323;28;20479;-80
2021/01/07 09:59:29;;;;;;;13.23;5.97;;;3.60;92.80;;;;;;5095150;28;20454;-80
2021/01/07 10:02:00;;;;;;;9.33;5.13;;;3.50;92.80;;;;;;5095251;28;20081;-80
2021/01/07 10:04:26;;;;;;;9.13;4.77;;;3.50;92.90;;;;;;5096168;28;20024;-80
2021/01/07 10:06:52;;;;;;;11.97;5.20;;;3.60;92.90;;;;;;5096352;28;20028;-78
2021/01/07 10:09:18;;;;;;;10.67;4.90;;;3.60;92.90;;;;;;5095456;28;20081;-79
2021/01/07 10:11:52;;;;;;;7.17;3.90;;;3.60;92.80;;;;;;5096149;28;20039;-79
2021/01/07 10:14:20;;;;;;;8.45;4.40;;;3.70;92.80;;;;;;5094750;28;20077;-79
2021/01/07 10:16:53;;;;;;;8.90;4.60;;;3.70;92.70;;;;;;5094809;28;20411;-80
2021/01/07 10:19:20;;;;;;;7.80;4.55;;;3.70;92.70;;;;;;5094177;28;20065;-80
2021/01/07 10:21:58;;;;;;;7.87;4.17;;;3.70;92.70;;;;;;5077891;28;20563;-80
2021/01/07 10:24:24;;;;;;;6.73;3.90;;;3.70;92.80;;;;;;5094533;28;20458;-80
2021/01/07 10:26:54;;;;;;;8.77;4.13;;;3.80;92.90;;;;;;5078135;28;20060;-81
2021/01/07 10:29:19;;;;;;;7.17;4.00;;;3.80;92.90;;;;;;5074238;28;20024;-80
2021/01/07 10:31:45;;;;;;;9.07;4.53;;;3.90;92.90;;;;;;5057373;28;20393;-81
2021/01/07 10:34:10;;;;;;;8.50;4.57;;;3.90;92.90;;;;;;5057740;28;20083;-80
2021/01/07 10:36:38;;;;;;;9.67;4.57;;;4.00;92.90;;;;;;5074063;28;20082;-80
2021/01/07 10:39:04;;;;;;;9.33;4.73;;;4.10;92.90;;;;;;5057385;28;20025;-81
2021/01/07 10:41:30;;;;;;;7.33;3.50;;;4.10;92.70;;;;;;5075488;28;20033;-80
2021/01/07 10:44:00;;;;;;;5.90;3.20;;;4.20;92.90;;;;;;5079593;28;20460;-80
2021/01/07 10:46:31;;;;;;;5.30;2.90;;;4.20;92.50;;;;;;5095348;28;20086;-79
2021/01/07 10:48:57;;;;;;;7.47;3.67;;;4.20;92.40;;;;;;5091288;28;20028;-80
2021/01/07 10:51:37;;;;;;;6.03;3.43;;;4.20;92.30;;;;;;5085518;28;20032;-80
2021/01/07 10:54:26;;;;;;;6.03;3.07;;;4.20;92.30;;;;;;5078512;28;20066;-82
2021/01/07 10:56:54;;;;;;;6.77;3.17;;;4.30;92.30;;;;;;5075354;28;20027;-82
2021/01/07 10:59:27;;;;;;;5.70;2.93;;;4.30;92.30;;;;;;5075390;28;20103;-82
2021/01/07 11:01:59;;;;;;;5.50;2.90;;;4.30;92.30;;;;;;5076729;28;20063;-82
2021/01/07 11:05:01;;;;;;;5.57;2.53;;;4.30;92.30;;;;;;5087891;28;20020;-79
2021/01/07 11:07:38;;;;;;;6.27;2.57;;;4.40;92.30;;;;;;5095041;28;20099;-81
2021/01/07 11:10:06;;;;;;;8.20;3.37;;;4.40;92.10;;;;;;5094924;28;20051;-83
2021/01/07 11:12:59;;;;;;;5.70;2.83;;;4.40;92.10;;;;;;5086936;28;20040;-81
2021/01/07 11:15:28;;;;;;;5.43;2.60;;;4.40;92.10;;;;;;5077916;28;20032;-82
2021/01/07 11:17:57;;;;;;;5.73;2.50;;;4.40;92.10;;;;;;5087018;28;20056;-81
2021/01/07 11:20:27;;;;;;;6.17;2.50;;;4.40;92.10;;;;;;5094439;28;20021;-82
2021/01/07 11:22:54;;;;;;;5.77;2.90;;;4.40;92.10;;;;;;5092456;28;20527;-80
2021/01/07 11:25:20;;;;;;;4.70;2.23;;;4.50;92.10;;;;;;5093137;28;20048;-82
2021/01/07 11:27:47;;;;;;;4.60;2.40;;;4.40;91.90;;;;;;5078446;28;20417;-81
2021/01/07 11:30:13;;;;;;;6.37;2.37;;;4.50;91.90;;;;;;5081068;28;20025;-81
2021/01/07 11:32:39;;;;;;;5.87;2.20;;;4.50;91.90;;;;;;5072573;28;20043;-81
2021/01/07 11:35:09;;;;;;;8.97;2.90;;;4.50;91.90;;;;;;5072460;28;20013;-79
2021/01/07 11:37:43;;;;;;;5.07;2.73;;;4.40;91.80;;;;;;5072662;28;20013;-82
2021/01/07 11:40:32;;;;;;;6.17;2.60;;;4.40;91.70;;;;;;5080890;28;20035;-81
2021/01/07 11:43:17;;;;;;;4.37;2.13;;;4.40;91.80;;;;;;5085899;28;20032;-82
2021/01/07 11:45:49;;;;;;;4.60;2.00;;;4.50;91.80;;;;;;5090667;28;20028;-80
2021/01/07 11:48:19;;;;;;;5.30;2.00;;;4.50;91.90;;;;;;5093990;28;20039;-80
2021/01/07 11:50:54;;;;;;;3.80;1.87;;;4.50;91.70;;;;;;5089641;28;20043;-81
2021/01/07 11:53:22;;;;;;;3.53;1.60;;;4.50;91.70;;;;;;5093810;28;20027;-80
2021/01/07 11:55:48;;;;;;;3.90;1.67;;;4.60;91.80;;;;;;5090571;28;20029;-78
2021/01/07 11:58:22;;;;;;;4.73;2.00;;;4.60;91.70;;;;;;5083204;28;20490;-79
2021/01/07 12:00:52;;;;;;;5.43;2.05;;;4.70;91.80;;;;;;5090646;28;20107;-80
2021/01/07 12:03:18;;;;;;;3.23;1.40;;;4.60;91.70;;;;;;5090715;28;20028;-81
2021/01/07 12:05:44;;;;;;;3.37;1.40;;;4.70;91.70;;;;;;5083036;28;20093;-79
2021/01/07 12:08:24;;;;;;;3.17;1.30;;;4.70;91.70;;;;;;5081862;28;20427;-80
2021/01/07 12:10:53;;;;;;;4.93;1.37;;;4.70;91.60;;;;;;5082548;28;20387;-80
2021/01/07 12:13:27;;;;;;;3.27;1.30;;;4.70;91.40;;;;;;5093766;28;20032;-79
2021/01/07 12:15:53;;;;;;;2.92;1.30;;;4.70;91.40;;;;;;5093050;28;20020;-80
2021/01/07 12:18:20;;;;;;;3.10;1.47;;;4.70;91.30;;;;;;5076246;28;20023;-78
2021/01/07 12:20:47;;;;;;;3.50;1.50;;;4.60;91.50;;;;;;5085951;28;20070;-80
2021/01/07 12:23:14;;;;;;;3.20;1.43;;;4.60;91.50;;;;;;5072123;28;20052;-80
2021/01/07 12:25:41;;;;;;;3.20;1.20;;;4.60;91.60;;;;;;5073447;28;20021;-80
2021/01/07 12:28:08;;;;;;;2.73;0.90;;;4.60;91.70;;;;;;5073393;28;20476;-78
2021/01/07 12:30:44;;;;;;;2.33;1.13;;;4.60;91.70;;;;;;5090110;28;20036;-79
2021/01/07 12:33:36;;;;;;;3.10;0.90;;;4.60;91.70;;;;;;5092249;28;20039;-79
2021/01/07 12:36:34;;;;;;;2.57;0.80;;;4.60;91.70;;;;;;5092168;28;20055;-80
2021/01/07 12:39:35;;;;;;;2.97;1.00;;;4.60;91.70;;;;;;5073303;28;20078;-80
2021/01/07 12:42:22;;;;;;;2.67;0.97;;;4.70;91.80;;;;;;5086214;28;20085;-80
2021/01/07 12:44:51;;;;;;;3.20;0.97;;;4.70;91.80;;;;;;5076186;28;20083;-80
2021/01/07 12:47:17;;;;;;;4.60;1.00;;;4.70;91.90;;;;;;5073128;28;20032;-80
2021/01/07 12:49:43;;;;;;;3.63;1.27;;;4.70;91.90;;;;;;5072668;28;20059;-80
2021/01/07 12:52:10;;;;;;;3.37;0.90;;;4.80;91.90;;;;;;5077355;28;20539;-80
2021/01/07 12:54:36;;;;;;;3.27;1.10;;;4.80;91.90;;;;;;5085664;28;20124;-79
2021/01/07 12:57:21;;;;;;;4.47;1.20;;;4.80;91.90;;;;;;5073083;28;20021;-81